Terminal Aerodrome Forecast
Issued by NWS Newport/Morehead City, NC

Home | Current Version | Previous Version | Text Only | Print | Product List | Glossary On
Versions: 1 2 3 4 5 6 7 8 9 10 11 12 13 14 15 16 17 18
000
FTUS42 KMHX 291728
TAFEWN
TAF
KEWN 291728Z 2918/3018 22009KT P6SM FEW035 SCT250
     FM300600 20006KT P6SM FEW010
     FM301000 21005KT P6SM FEW005 SCT010
     FM301330 22010KT P6SM SCT015=

USA.gov is the U.S. government's official web portal to all federal, state and local government web resources and services.